Time;durP1;ratioP1;P1;durP2;ratioP2;P2;SDS_P1;SDS_P2;PMS_P1;PMS_P2;Temp;Humidity;BMP_temperature;BMP_pressure;BME280_temperature;BME280_humidity;BME280_pressure;Samples;Min_cycle;Max_cycle;Signal;HPM_P1;HPM_P2
2023/07/02 00:01:45;;;;;;;5.50;4.00;;;;;;;;;;5076587;28;20487;-79
2023/07/02 00:04:19;;;;;;;4.00;3.70;;;;;;;;;;5075240;28;20534;-79
2023/07/02 00:06:48;;;;;;;5.17;4.70;;;;;;;;;;5074306;28;20462;-79
2023/07/02 00:09:20;;;;;;;4.40;4.10;;;;;;;;;;5082974;28;20451;-77
2023/07/02 00:12:14;;;;;;;3.97;3.77;;;;;;;;;;5085144;28;20448;-78
2023/07/02 00:17:32;;;;;;;3.90;3.67;;;;;;;;;;5078995;28;20445;-78
2023/07/02 00:22:51;;;;;;;3.97;3.77;;;;;;;;;;5030076;28;20517;-77
2023/07/02 00:25:24;;;;;;;4.27;3.87;;;17.20;99.90;;;;;;5058789;28;20486;-76
2023/07/02 00:28:03;;;;;;;3.93;3.63;;;17.20;99.90;;;;;;5059041;28;20417;-77
2023/07/02 00:30:34;;;;;;;4.50;4.20;;;17.20;99.90;;;;;;5056704;28;20415;-76
2023/07/02 00:33:02;;;;;;;5.00;4.60;;;17.10;99.90;;;;;;5056213;28;20494;-76
2023/07/02 00:35:34;;;;;;;4.57;4.00;;;17.10;99.90;;;;;;5056402;28;20455;-78
2023/07/02 00:38:19;;;;;;;4.30;3.90;;;17.10;99.90;;;;;;5057253;28;20500;-76
2023/07/02 00:40:52;;;;;;;4.10;3.70;;;17.00;99.90;;;;;;5058728;28;20862;-78
2023/07/02 00:43:20;;;;;;;4.50;4.20;;;17.00;99.90;;;;;;5057541;28;20557;-76
2023/07/02 00:45:57;;;;;;;3.80;3.50;;;17.00;99.90;;;;;;5057877;28;20446;-76
2023/07/02 00:48:34;;;;;;;5.13;3.77;;;17.00;99.90;;;;;;5059494;28;20449;-77
2023/07/02 00:51:02;;;;;;;3.97;3.43;;;17.00;99.90;;;;;;5059494;28;20449;-77
2023/07/02 00:53:34;;;;;;;4.30;3.90;;;17.00;99.90;;;;;;5058211;28;20462;-75
2023/07/02 00:56:03;;;;;;;4.23;3.83;;;16.60;99.90;;;;;;5059827;28;20415;-76
2023/07/02 00:58:32;;;;;;;3.83;3.53;;;17.00;99.90;;;;;;5063007;28;20448;-76
2023/07/02 01:01:11;;;;;;;3.87;3.57;;;16.90;99.90;;;;;;5062148;28;20453;-76
2023/07/02 01:03:40;;;;;;;4.17;3.87;;;16.90;99.90;;;;;;5062828;28;20458;-76
2023/07/02 01:06:09;;;;;;;5.03;3.60;;;17.00;99.90;;;;;;5062871;28;20465;-78
2023/07/02 01:08:41;;;;;;;3.90;3.60;;;17.00;99.90;;;;;;5076565;28;20445;-76
2023/07/02 01:14:11;;;;;;;5.03;4.23;;;17.00;99.90;;;;;;5073502;28;20494;-76
2023/07/02 01:16:44;;;;;;;4.57;4.17;;;17.00;99.90;;;;;;5084038;28;20446;-77
2023/07/02 01:19:27;;;;;;;4.20;4.00;;;17.00;99.90;;;;;;5083440;28;20509;-75
2023/07/02 01:22:00;;;;;;;3.70;3.50;;;17.00;99.90;;;;;;5084080;28;20479;-77
2023/07/02 01:24:38;;;;;;;4.50;3.93;;;16.90;99.90;;;;;;5085181;28;20520;-76
2023/07/02 01:27:10;;;;;;;5.63;3.37;;;16.90;99.90;;;;;;5087437;28;20452;-75
2023/07/02 01:29:39;;;;;;;5.13;3.53;;;16.90;99.90;;;;;;5088094;28;20826;-77
2023/07/02 01:32:08;;;;;;;3.80;3.50;;;16.90;99.90;;;;;;5088549;28;20452;-76
2023/07/02 01:34:39;;;;;;;4.13;3.73;;;16.90;99.90;;;;;;5088444;28;20489;-75
2023/07/02 01:37:12;;;;;;;4.03;3.73;;;16.90;99.90;;;;;;5090478;28;20425;-76
2023/07/02 01:39:44;;;;;;;3.80;3.50;;;16.90;99.90;;;;;;5089650;28;20807;-75
2023/07/02 01:42:17;;;;;;;4.00;3.70;;;16.80;99.90;;;;;;5090473;28;20457;-77
2023/07/02 01:44:53;;;;;;;3.87;3.30;;;16.80;99.90;;;;;;5090165;28;20453;-76
2023/07/02 01:47:25;;;;;;;4.30;4.03;;;16.80;99.90;;;;;;5088196;28;20433;-76
2023/07/02 01:49:53;;;;;;;3.63;3.33;;;16.80;99.90;;;;;;5082392;28;20449;-78
2023/07/02 01:52:27;;;;;;;4.07;3.77;;;16.80;99.90;;;;;;5081269;28;20461;-76
2023/07/02 01:58:34;;;;;;;3.93;3.53;;;16.80;99.90;;;;;;5030525;28;20522;-77
2023/07/02 02:04:27;;;;;;;4.23;3.83;;;16.80;99.90;;;;;;5078428;28;20481;-76
2023/07/02 02:07:41;;;;;;;;;;;;;;;;;;;;;
2023/07/02 02:10:16;;;;;;;3.67;2.90;;;16.80;99.90;;;;;;5080329;28;20437;-76
2023/07/02 02:12:48;;;;;;;3.73;3.43;;;16.80;99.90;;;;;;5080418;28;20469;-77
2023/07/02 02:15:36;;;;;;;5.43;3.77;;;16.80;99.90;;;;;;5080256;28;20480;-77
2023/07/02 02:24:58;;;;;;;4.03;3.73;;;16.80;99.90;;;;;;4980745;28;20501;-77
2023/07/02 02:28:04;;;;;;;3.97;3.60;;;16.80;99.90;;;;;;4973234;28;20458;-76
2023/07/02 02:40:14;;;;;;;3.73;3.53;;;16.90;99.90;;;;;;4972861;28;20453;-77
2023/07/02 02:43:30;;;;;;;4.30;4.00;;;16.90;99.90;;;;;;4972987;28;20497;-77
2023/07/02 02:46:11;;;;;;;5.43;3.73;;;17.00;99.90;;;;;;5029512;28;20472;-76
2023/07/02 02:48:45;;;;;;;4.50;4.10;;;17.00;99.90;;;;;;5055096;28;20445;-76
2023/07/02 02:51:52;;;;;;;4.27;3.87;;;17.00;99.90;;;;;;5055689;28;20450;-76
2023/07/02 02:54:32;;;;;;;4.30;4.00;;;17.00;99.90;;;;;;4975218;28;20487;-76
2023/07/02 02:57:21;;;;;;;4.27;3.70;;;17.00;99.90;;;;;;5051900;28;20446;-76
2023/07/02 03:00:28;;;;;;;3.93;3.63;;;16.90;99.90;;;;;;5057713;28;20473;-76
2023/07/02 03:08:58;;;;;;;3.30;3.10;;;16.90;99.90;;;;;;5056534;28;20446;-76
2023/07/02 03:11:29;;;;;;;4.20;3.90;;;16.90;99.90;;;;;;5057690;28;20540;-76
2023/07/02 03:13:57;;;;;;;4.10;3.70;;;17.00;99.90;;;;;;5058061;28;20446;-76
2023/07/02 03:16:28;;;;;;;5.90;3.50;;;16.80;99.90;;;;;;5058064;28;20540;-77
2023/07/02 03:19:04;;;;;;;6.10;3.67;;;16.80;99.90;;;;;;5058272;28;20481;-77
2023/07/02 03:21:38;;;;;;;3.83;3.60;;;16.80;99.90;;;;;;5070283;28;20459;-76
2023/07/02 03:24:26;;;;;;;4.47;4.07;;;16.80;99.90;;;;;;5078777;28;20476;-76
2023/07/02 03:30:25;;;;;;;4.77;4.37;;;16.60;99.90;;;;;;5040914;28;20422;-78
2023/07/02 03:33:34;;;;;;;4.47;4.17;;;16.40;99.90;;;;;;5067742;28;20478;-78
2023/07/02 03:36:10;;;;;;;5.33;4.50;;;16.40;99.90;;;;;;5070237;28;20437;-77
2023/07/02 03:38:57;;;;;;;5.40;4.90;;;16.40;99.90;;;;;;5069221;28;20445;-77
2023/07/02 03:41:46;;;;;;;6.07;4.70;;;16.20;99.90;;;;;;5069304;28;20987;-77
2023/07/02 03:44:52;;;;;;;6.97;4.70;;;16.10;99.90;;;;;;5068082;28;20823;-76
2023/07/02 03:47:28;;;;;;;5.77;5.27;;;16.00;99.90;;;;;;5068110;28;20438;-76
2023/07/02 03:50:08;;;;;;;7.77;5.07;;;16.10;99.90;;;;;;5070621;28;20460;-76
2023/07/02 03:52:44;;;;;;;5.47;4.97;;;16.00;99.90;;;;;;5068019;28;20982;-77
2023/07/02 03:55:16;;;;;;;5.10;4.70;;;16.00;99.90;;;;;;5066995;28;20437;-77
2023/07/02 03:57:47;;;;;;;5.00;4.60;;;16.10;99.90;;;;;;5068218;28;20481;-77
2023/07/02 04:03:28;;;;;;;9.30;4.80;;;16.00;99.90;;;;;;5045924;28;20486;-78
2023/07/02 04:06:12;;;;;;;6.20;4.73;;;;;;;;;;5067747;28;20437;-77
2023/07/02 04:09:20;;;;;;;;;;;;;;;;;;;;;
2023/07/02 04:12:15;;;;;;;7.80;5.27;;;15.90;99.90;;;;;;5068449;28;20442;-78
2023/07/02 04:15:11;;;;;;;5.40;4.90;;;15.90;99.90;;;;;;5058350;28;20550;-76
2023/07/02 04:18:17;;;;;;;9.23;5.30;;;15.90;99.90;;;;;;5056702;28;20481;-78
2023/07/02 04:20:50;;;;;;;6.17;5.53;;;15.90;99.90;;;;;;5061684;28;20454;-76
2023/07/02 04:23:41;;;;;;;5.80;5.20;;;16.00;99.90;;;;;;5064759;28;20481;-78
2023/07/02 04:26:13;;;;;;;6.27;5.67;;;15.90;99.90;;;;;;5065109;28;20454;-76
2023/07/02 04:28:47;;;;;;;6.37;5.50;;;15.90;99.90;;;;;;5067598;28;20449;-76
2023/07/02 04:31:19;;;;;;;5.40;4.90;;;15.90;99.90;;;;;;5067546;28;20441;-76
2023/07/02 04:33:50;;;;;;;6.63;5.53;;;15.80;99.90;;;;;;5067551;28;20470;-77
2023/07/02 04:36:28;;;;;;;7.53;5.47;;;15.80;99.90;;;;;;5069519;28;20430;-77
2023/07/02 04:38:58;;;;;;;8.20;5.83;;;15.80;99.90;;;;;;5069695;28;20465;-78
2023/07/02 04:41:36;;;;;;;6.83;5.67;;;15.80;99.90;;;;;;5070844;28;20461;-77
2023/07/02 04:44:15;;;;;;;9.70;5.63;;;15.80;99.90;;;;;;5070542;28;20508;-77
2023/07/02 04:46:52;;;;;;;6.57;4.80;;;15.80;99.90;;;;;;5070876;28;20482;-76
2023/07/02 04:49:33;;;;;;;6.57;5.87;;;15.90;99.90;;;;;;5070723;28;20461;-77
2023/07/02 04:52:04;;;;;;;5.40;4.63;;;15.80;99.90;;;;;;5068502;28;20402;-78
2023/07/02 04:54:36;;;;;;;7.53;5.53;;;15.80;99.90;;;;;;5063657;28;20474;-77
2023/07/02 04:57:14;;;;;;;6.67;5.67;;;16.00;99.90;;;;;;5057503;28;20443;-76
2023/07/02 04:59:56;;;;;;;6.37;5.63;;;15.80;99.90;;;;;;5056534;28;20435;-77
2023/07/02 05:02:29;;;;;;;5.33;4.83;;;15.90;99.90;;;;;;5055533;28;20515;-76
2023/07/02 05:04:58;;;;;;;6.10;5.50;;;15.50;99.90;;;;;;5062475;28;20512;-76
2023/07/02 05:07:39;;;;;;;5.37;4.87;;;15.80;99.90;;;;;;5063717;28;20454;-78
2023/07/02 05:10:14;;;;;;;6.80;5.17;;;15.80;99.90;;;;;;5062866;28;20499;-76
2023/07/02 05:12:46;;;;;;;7.13;5.13;;;15.80;99.90;;;;;;5062958;28;20469;-78
2023/07/02 05:15:17;;;;;;;5.60;4.17;;;15.60;99.90;;;;;;5068296;28;20415;-78
2023/07/02 05:17:48;;;;;;;5.37;4.90;;;16.00;99.90;;;;;;5095395;28;20475;-77
2023/07/02 05:20:22;;;;;;;6.77;4.73;;;16.00;99.90;;;;;;5093470;28;20442;-76
2023/07/02 05:22:53;;;;;;;5.87;4.60;;;16.00;99.90;;;;;;5087119;28;20565;-77
2023/07/02 05:25:22;;;;;;;8.37;5.47;;;16.00;99.90;;;;;;5089735;28;20510;-78
2023/07/02 05:27:59;;;;;;;5.50;5.00;;;16.10;99.90;;;;;;5101768;28;20444;-78
2023/07/02 05:30:27;;;;;;;5.80;5.20;;;16.20;99.90;;;;;;5086861;28;20521;-77
2023/07/02 05:33:00;;;;;;;9.17;5.50;;;16.20;99.90;;;;;;5095076;28;20477;-76
2023/07/02 05:35:35;;;;;;;6.97;5.30;;;16.20;99.90;;;;;;5094575;28;20468;-80
2023/07/02 05:41:02;;;;;;;6.70;5.50;;;16.20;99.90;;;;;;5074708;28;20426;-76
2023/07/02 05:43:43;;;;;;;6.60;5.00;;;16.20;99.90;;;;;;5074857;28;20469;-77
2023/07/02 05:46:39;;;;;;;7.80;5.43;;;16.20;99.90;;;;;;5071504;28;20525;-76
2023/07/02 05:49:08;;;;;;;6.20;5.60;;;16.30;99.90;;;;;;5069936;28;20453;-76
2023/07/02 05:51:36;;;;;;;6.07;5.37;;;16.40;99.90;;;;;;5060396;28;20516;-77
2023/07/02 05:54:05;;;;;;;8.53;5.57;;;16.50;99.90;;;;;;5060938;28;20491;-78
2023/07/02 05:56:39;;;;;;;7.50;5.20;;;16.60;99.90;;;;;;5060165;28;20442;-78
2023/07/02 05:59:08;;;;;;;6.03;5.07;;;16.70;99.90;;;;;;5060731;28;20458;-76
2023/07/02 06:01:38;;;;;;;7.70;5.60;;;16.80;99.90;;;;;;5060199;28;20457;-77
2023/07/02 06:04:08;;;;;;;5.93;5.30;;;17.00;99.90;;;;;;5062862;28;20523;-77
2023/07/02 06:06:41;;;;;;;10.63;6.50;;;17.10;99.90;;;;;;5085979;28;20453;-76
2023/07/02 06:09:10;;;;;;;6.40;5.40;;;17.10;99.90;;;;;;5089037;28;20547;-76
2023/07/02 06:12:00;;;;;;;8.73;6.40;;;17.20;99.90;;;;;;5089653;28;20494;-76
2023/07/02 06:14:51;;;;;;;8.30;6.53;;;17.30;99.90;;;;;;5090248;28;20459;-76
2023/07/02 06:17:25;;;;;;;9.83;7.03;;;17.50;99.90;;;;;;5091555;28;20447;-75
2023/07/02 06:19:58;;;;;;;8.53;7.27;;;17.50;99.90;;;;;;5093455;28;20535;-76
2023/07/02 06:22:46;;;;;;;;;;;;;;;;;;;;;
2023/07/02 06:25:26;;;;;;;12.07;7.70;;;17.50;99.90;;;;;;5087396;28;20417;-77
2023/07/02 06:27:59;;;;;;;9.67;7.30;;;17.50;99.90;;;;;;5083124;28;20832;-78
2023/07/02 06:30:34;;;;;;;10.40;7.67;;;17.70;99.90;;;;;;5080093;28;20544;-77
2023/07/02 06:33:16;;;;;;;11.00;8.13;;;17.80;99.90;;;;;;5076272;28;20502;-76
2023/07/02 06:38:58;;;;;;;10.37;9.00;;;17.80;99.90;;;;;;5071612;28;20442;-77
2023/07/02 06:41:49;;;;;;;12.23;8.70;;;18.20;99.90;;;;;;5077758;28;20879;-76
2023/07/02 06:44:21;;;;;;;12.60;8.33;;;18.10;99.90;;;;;;5076637;28;20485;-77
2023/07/02 06:46:56;;;;;;;17.90;9.90;;;18.00;99.90;;;;;;5076570;28;20545;-77
2023/07/02 06:52:16;;;;;;;11.83;9.07;;;17.90;99.90;;;;;;5079012;28;20446;-76
2023/07/02 06:54:45;;;;;;;15.53;10.07;;;18.00;99.90;;;;;;5080860;28;20499;-76
2023/07/02 06:57:14;;;;;;;10.10;8.10;;;18.10;99.90;;;;;;5082966;28;20805;-77
2023/07/02 06:59:46;;;;;;;11.93;9.80;;;18.20;99.90;;;;;;5085866;28;20452;-78
2023/07/02 07:02:18;;;;;;;11.97;8.97;;;18.30;99.90;;;;;;5086659;28;20441;-77
2023/07/02 07:04:51;;;;;;;15.23;10.00;;;18.30;99.90;;;;;;5086806;28;20479;-75
2023/07/02 07:07:22;;;;;;;12.47;8.87;;;18.30;99.90;;;;;;5085947;28;20461;-76
2023/07/02 07:09:54;;;;;;;12.67;9.67;;;18.20;99.90;;;;;;5083066;28;20461;-77
2023/07/02 07:12:27;;;;;;;13.03;10.27;;;18.20;99.90;;;;;;5083005;28;20954;-78
2023/07/02 07:14:59;;;;;;;19.10;10.80;;;18.20;99.90;;;;;;5086095;28;20453;-74
2023/07/02 07:17:37;;;;;;;13.50;10.63;;;18.20;99.90;;;;;;5084634;28;20441;-76
2023/07/02 07:20:09;;;;;;;13.70;9.93;;;18.20;99.90;;;;;;5087173;28;20453;-78
2023/07/02 07:22:37;;;;;;;11.73;9.67;;;18.40;99.90;;;;;;5084909;28;20545;-77
2023/07/02 07:25:06;;;;;;;14.57;10.63;;;18.40;99.90;;;;;;5085102;28;20477;-78
2023/07/02 07:27:33;;;;;;;14.50;10.90;;;18.50;99.90;;;;;;5082069;28;20480;-78
2023/07/02 07:30:11;;;;;;;19.00;11.10;;;18.60;99.90;;;;;;5079761;28;20520;-76
2023/07/02 07:32:42;;;;;;;13.33;10.47;;;18.70;99.90;;;;;;5060846;28;20473;-76
2023/07/02 07:35:11;;;;;;;13.80;11.30;;;18.70;99.90;;;;;;5062975;28;20454;-77
2023/07/02 07:37:39;;;;;;;14.90;12.00;;;18.60;99.90;;;;;;5081759;28;20933;-78
2023/07/02 07:40:09;;;;;;;15.80;12.53;;;18.90;99.90;;;;;;5083742;28;20449;-78
2023/07/02 07:42:36;;;;;;;18.10;13.03;;;19.10;99.90;;;;;;5086697;28;20475;-79
2023/07/02 07:45:05;;;;;;;14.90;12.90;;;19.10;99.90;;;;;;5087417;28;20482;-77
2023/07/02 07:47:33;;;;;;;15.47;12.37;;;19.40;99.90;;;;;;5085572;28;20567;-77
2023/07/02 07:50:02;;;;;;;15.40;13.73;;;19.50;99.90;;;;;;5086451;28;20477;-77
2023/07/02 07:52:30;;;;;;;18.60;12.87;;;19.30;99.90;;;;;;5087001;28;20519;-78
2023/07/02 07:54:59;;;;;;;17.00;13.60;;;19.20;99.90;;;;;;5090112;28;20572;-77
2023/07/02 07:57:27;;;;;;;16.47;13.00;;;19.20;99.90;;;;;;5091419;28;20451;-77
2023/07/02 07:59:55;;;;;;;18.90;12.80;;;19.40;99.90;;;;;;5089350;28;20448;-79
2023/07/02 08:02:24;;;;;;;19.10;14.10;;;19.50;99.90;;;;;;5086823;28;20451;-78
2023/07/02 08:04:51;;;;;;;16.60;12.77;;;19.50;99.90;;;;;;5086075;28;20477;-79
2023/07/02 08:07:21;;;;;;;19.90;13.60;;;19.60;99.90;;;;;;5083286;28;20453;-77
2023/07/02 08:09:49;;;;;;;17.47;13.60;;;19.60;99.90;;;;;;5077916;28;20511;-78
2023/07/02 08:12:17;;;;;;;18.90;13.63;;;19.50;99.90;;;;;;5078298;28;20459;-76
2023/07/02 08:14:45;;;;;;;17.67;14.37;;;19.50;99.90;;;;;;5079238;28;20435;-77
2023/07/02 08:17:14;;;;;;;19.90;14.53;;;19.60;99.90;;;;;;5078920;28;20492;-79
2023/07/02 08:19:42;;;;;;;19.97;14.53;;;19.70;99.90;;;;;;5080099;28;20504;-75
2023/07/02 08:22:13;;;;;;;15.43;13.73;;;19.80;99.90;;;;;;5079767;28;20447;-78
2023/07/02 08:24:42;;;;;;;17.70;13.30;;;19.80;99.90;;;;;;5077910;28;20499;-78
2023/07/02 08:27:13;;;;;;;16.23;13.47;;;19.90;99.90;;;;;;5079376;28;20446;-78
2023/07/02 08:29:42;;;;;;;15.63;12.97;;;19.70;99.90;;;;;;5079467;28;20457;-78
2023/07/02 08:32:09;;;;;;;20.70;14.40;;;19.80;99.90;;;;;;5078502;28;20474;-77
2023/07/02 08:34:37;;;;;;;20.37;14.40;;;19.90;99.90;;;;;;5079409;28;20480;-78
2023/07/02 08:37:09;;;;;;;18.03;13.93;;;20.00;99.90;;;;;;5081992;28;20441;-78
2023/07/02 08:39:39;;;;;;;16.40;12.93;;;20.50;99.90;;;;;;5081587;28;20513;-80
2023/07/02 08:42:11;;;;;;;15.47;13.40;;;20.40;99.90;;;;;;5080687;28;20479;-78
2023/07/02 08:44:39;;;;;;;20.43;13.20;;;20.50;99.90;;;;;;5080867;28;20491;-78
2023/07/02 08:47:12;;;;;;;18.30;13.50;;;20.70;99.90;;;;;;5081955;28;20437;-80
2023/07/02 08:49:40;;;;;;;17.87;13.60;;;20.80;99.90;;;;;;5080169;28;20528;-77
2023/07/02 08:52:08;;;;;;;18.43;12.87;;;20.70;99.90;;;;;;5079338;28;20457;-79
2023/07/02 08:54:36;;;;;;;14.97;11.73;;;20.70;99.90;;;;;;5077928;28;20478;-77
2023/07/02 08:57:07;;;;;;;16.03;12.10;;;20.80;99.90;;;;;;5077989;28;20450;-78
2023/07/02 08:59:37;;;;;;;14.43;11.90;;;20.50;99.90;;;;;;5079477;28;20534;-78
2023/07/02 09:02:06;;;;;;;13.87;12.17;;;20.50;99.90;;;;;;5078705;28;20442;-78
2023/07/02 09:04:33;;;;;;;14.80;11.57;;;20.60;99.90;;;;;;5076314;28;20487;-78
2023/07/02 09:07:08;;;;;;;15.57;11.30;;;21.00;99.90;;;;;;5076799;28;20455;-76
2023/07/02 09:09:46;;;;;;;16.53;13.00;;;21.40;99.90;;;;;;5077283;28;20477;-77
2023/07/02 09:12:25;;;;;;;14.70;12.60;;;21.50;99.90;;;;;;5075689;28;20441;-78
2023/07/02 09:15:06;;;;;;;13.53;12.13;;;21.60;99.90;;;;;;5077889;28;20449;-76
2023/07/02 09:17:38;;;;;;;14.13;11.33;;;21.70;99.90;;;;;;5077979;28;20430;-77
2023/07/02 09:20:08;;;;;;;14.30;11.53;;;21.80;99.90;;;;;;5077245;28;20548;-80
2023/07/02 09:22:36;;;;;;;15.20;12.60;;;22.00;99.90;;;;;;5077077;28;20477;-78
2023/07/02 09:25:04;;;;;;;14.73;12.40;;;22.00;99.90;;;;;;5076144;28;20564;-78
2023/07/02 09:27:38;;;;;;;13.40;11.30;;;22.30;99.90;;;;;;5075380;28;20552;-77
2023/07/02 09:30:16;;;;;;;15.17;12.73;;;22.10;99.90;;;;;;5076820;28;20492;-76
2023/07/02 09:32:44;;;;;;;18.00;12.97;;;22.20;99.90;;;;;;5074074;28;20456;-76
2023/07/02 09:35:12;;;;;;;15.53;11.47;;;22.20;99.90;;;;;;5075537;28;20457;-79
2023/07/02 09:37:45;;;;;;;15.20;11.53;;;22.30;99.90;;;;;;5075136;28;20506;-78
2023/07/02 09:40:13;;;;;;;14.30;12.27;;;22.30;99.90;;;;;;5076231;28;20515;-77
2023/07/02 09:42:42;;;;;;;13.07;11.33;;;22.50;99.90;;;;;;5073678;28;20465;-76
2023/07/02 09:45:12;;;;;;;14.73;12.07;;;22.90;99.90;;;;;;5073525;28;20469;-77
2023/07/02 09:47:45;;;;;;;13.97;12.10;;;22.70;99.90;;;;;;5083720;28;20513;-76
2023/07/02 09:50:24;;;;;;;15.30;11.83;;;22.50;99.90;;;;;;5086415;28;20480;-75
2023/07/02 09:52:52;;;;;;;14.70;12.77;;;22.60;99.90;;;;;;5082076;28;20985;-77
2023/07/02 09:55:20;;;;;;;13.07;11.70;;;22.90;99.90;;;;;;5084876;28;20476;-76
2023/07/02 09:57:48;;;;;;;17.43;13.40;;;22.80;99.90;;;;;;5086890;28;20512;-78
2023/07/02 10:00:21;;;;;;;13.60;11.50;;;23.20;99.90;;;;;;5083279;28;20934;-77
2023/07/02 10:02:52;;;;;;;14.10;11.80;;;22.60;99.90;;;;;;5074505;28;21073;-76
2023/07/02 10:05:30;;;;;;;13.70;11.90;;;22.30;99.90;;;;;;5071434;28;20814;-78
2023/07/02 10:08:13;;;;;;;18.97;12.50;;;23.50;99.90;;;;;;5070506;28;20444;-78
2023/07/02 10:10:41;;;;;;;14.57;12.80;;;;;;;;;;5070972;28;20496;-77
2023/07/02 10:13:09;;;;;;;13.20;11.80;;;;;;;;;;5074845;28;20470;-77
2023/07/02 10:15:39;;;;;;;15.00;12.67;;;;;;;;;;5075432;28;20910;-76
2023/07/02 10:18:07;;;;;;;17.37;13.47;;;;;;;;;;5080025;28;20849;-78
2023/07/02 10:20:35;;;;;;;19.73;13.63;;;;;;;;;;5086627;28;20501;-78
2023/07/02 10:23:03;;;;;;;14.57;13.03;;;;;;;;;;5080923;28;21012;-77
2023/07/02 10:25:32;;;;;;;16.60;13.20;;;;;;;;;;5079669;28;20464;-76
2023/07/02 10:28:00;;;;;;;17.47;13.10;;;;;;;;;;5079340;28;20452;-77
2023/07/02 10:30:39;;;;;;;17.87;14.10;;;;;;;;;;5079956;28;20459;-78
2023/07/02 10:33:10;;;;;;;16.27;14.43;;;;;;;;;;5077644;28;21147;-79
2023/07/02 10:35:42;;;;;;;15.60;13.40;;;;;;;;;;5078556;28;20456;-76
2023/07/02 10:38:09;;;;;;;16.40;13.27;;;;;;;;;;5078350;28;20452;-77
2023/07/02 10:40:37;;;;;;;16.13;13.40;;;;;;;;;;5077769;28;20970;-78
2023/07/02 10:43:07;;;;;;;15.67;13.77;;;;;;;;;;5077676;28;20545;-77
2023/07/02 10:45:35;;;;;;;14.60;12.53;;;;;;;;;;5079802;28;20492;-76
2023/07/02 10:48:13;;;;;;;14.83;13.17;;;;;;;;;;5078657;28;20449;-75
2023/07/02 10:50:53;;;;;;;14.33;12.73;;;;;;;;;;5077761;28;20457;-77
2023/07/02 10:53:26;;;;;;;16.30;14.10;;;;;;;;;;5074431;28;20476;-77
2023/07/02 10:55:56;;;;;;;15.93;14.40;;;;;;;;;;5077228;28;20454;-78
2023/07/02 10:58:23;;;;;;;15.03;13.20;;;;;;;;;;5080285;28;20797;-77
2023/07/02 11:00:51;;;;;;;16.40;13.80;;;;;;;;;;5082776;28;20432;-78
2023/07/02 11:03:21;;;;;;;17.60;13.57;;;;;;;;;;5076935;28;20535;-76
2023/07/02 11:05:48;;;;;;;15.93;13.50;;;;;;;;;;5076331;28;20838;-77
2023/07/02 11:08:16;;;;;;;14.60;12.10;;;;;;;;;;5077137;28;20462;-78
2023/07/02 11:10:44;;;;;;;14.77;13.20;;;;;;;;;;5076574;28;20460;-77
2023/07/02 11:13:12;;;;;;;15.47;13.27;;;;;;;;;;5076003;28;20508;-76
2023/07/02 11:15:41;;;;;;;16.80;13.20;;;;;;;;;;5074460;28;20449;-76
2023/07/02 11:18:14;;;;;;;16.53;14.60;;;;;;;;;;5075863;28;20457;-76
2023/07/02 11:20:44;;;;;;;15.17;13.57;;;;;;;;;;5080027;28;20453;-75
2023/07/02 11:23:21;;;;;;;14.67;13.17;;;;;;;;;;5080246;28;20623;-76
2023/07/02 11:25:58;;;;;;;16.70;13.50;;;;;;;;;;5080141;28;20477;-76
2023/07/02 11:28:26;;;;;;;17.80;13.67;;;;;;;;;;5076480;28;20426;-76
2023/07/02 11:30:54;;;;;;;15.73;13.17;;;;;;;;;;5077324;28;20454;-77
2023/07/02 11:33:22;;;;;;;14.77;13.10;;;;;;;;;;5073986;28;20495;-76
2023/07/02 11:35:51;;;;;;;17.03;13.00;;;;;;;;;;5074494;28;20464;-78
2023/07/02 11:38:19;;;;;;;13.43;12.23;;;;;;;;;;5075989;28;20450;-78
2023/07/02 11:40:48;;;;;;;15.23;12.73;;;;;;;;;;5075307;28;20456;-77
2023/07/02 11:43:15;;;;;;;16.20;12.57;;;;;;;;;;5074650;28;20509;-78
2023/07/02 11:45:43;;;;;;;14.00;12.57;;;;;;;;;;5074408;28;20478;-77
2023/07/02 11:48:11;;;;;;;14.77;12.53;;;;;;;;;;5075028;28;20455;-79
2023/07/02 11:50:39;;;;;;;15.90;13.50;;;;;;;;;;5076301;28;20453;-78
2023/07/02 11:53:08;;;;;;;18.30;13.53;;;;;;;;;;5074893;28;20474;-78
2023/07/02 11:55:36;;;;;;;16.57;14.80;;;;;;;;;;5078848;28;20458;-75
2023/07/02 11:58:03;;;;;;;14.67;13.13;;;;;;;;;;5084216;28;20451;-77
2023/07/02 12:00:30;;;;;;;14.27;12.87;;;;;;;;;;5089917;28;20443;-77
2023/07/02 12:02:58;;;;;;;16.50;12.53;;;;;;;;;;5085890;28;20472;-76
2023/07/02 12:05:25;;;;;;;14.93;13.30;;;;;;;;;;5090355;28;20487;-76
2023/07/02 12:07:53;;;;;;;14.00;12.30;;;;;;;;;;5091155;28;20494;-75
2023/07/02 12:10:21;;;;;;;15.00;13.47;;;;;;;;;;5090460;28;20469;-77
2023/07/02 12:12:49;;;;;;;15.57;13.73;;;;;;;;;;5090462;28;20518;-76
2023/07/02 12:15:16;;;;;;;17.83;13.30;;;;;;;;;;5085067;28;20523;-78
2023/07/02 12:17:43;;;;;;;18.87;14.10;;;;;;;;;;5089948;28;20436;-76
2023/07/02 12:20:11;;;;;;;15.03;13.10;;;;;;;;;;5088655;28;20478;-77
2023/07/02 12:22:39;;;;;;;14.90;12.70;;;;;;;;;;5088419;28;20468;-77
2023/07/02 12:25:07;;;;;;;15.90;13.07;;;;;;;;;;5087520;28;20476;-77
2023/07/02 12:27:36;;;;;;;15.93;13.80;;;;;;;;;;5086292;28;20451;-77
2023/07/02 12:30:03;;;;;;;15.93;14.13;;;;;;;;;;5086854;28;20930;-75
2023/07/02 12:32:33;;;;;;;17.77;13.43;;;;;;;;;;5084156;28;20460;-77
2023/07/02 12:35:03;;;;;;;14.30;12.90;;;;;;;;;;5081654;28;20506;-76
2023/07/02 12:37:31;;;;;;;17.30;13.00;;;;;;;;;;5084740;28;20433;-76
2023/07/02 12:40:00;;;;;;;15.20;13.27;;;;;;;;;;5084964;28;20463;-76
2023/07/02 12:42:28;;;;;;;14.33;12.80;;;;;;;;;;5085189;28;20453;-77
2023/07/02 12:44:57;;;;;;;20.07;14.77;;;;;;;;;;5083933;28;20474;-75
2023/07/02 12:47:25;;;;;;;15.33;13.70;;;;;;;;;;5085980;28;20484;-74
2023/07/02 12:49:53;;;;;;;16.23;13.20;;;;;;;;;;5083386;28;20479;-76
2023/07/02 12:52:20;;;;;;;13.80;12.40;;;;;;;;;;5083209;28;20435;-77
2023/07/02 12:54:48;;;;;;;17.63;12.90;;;;;;;;;;5090776;28;20449;-76
2023/07/02 12:57:15;;;;;;;14.67;13.17;;;;;;;;;;5089911;28;20501;-75
2023/07/02 12:59:43;;;;;;;14.60;13.03;;;;;;;;;;5088370;28;20508;-76
2023/07/02 13:02:12;;;;;;;16.23;13.90;;;;;;;;;;5089160;28;20464;-80
2023/07/02 13:04:40;;;;;;;15.10;13.37;;;;;;;;;;5086755;28;20471;-77
2023/07/02 13:07:07;;;;;;;14.93;13.33;;;;;;;;;;5077673;28;20503;-77
2023/07/02 13:09:34;;;;;;;13.73;12.20;;;;;;;;;;5077709;28;20456;-76
2023/07/02 13:12:02;;;;;;;15.03;13.23;;;;;;;;;;5077264;28;20467;-79
2023/07/02 13:14:30;;;;;;;17.60;13.97;;;;;;;;;;5078297;28;20477;-76
2023/07/02 13:16:59;;;;;;;14.43;12.90;;;;;;;;;;5077279;28;20448;-76
2023/07/02 13:19:28;;;;;;;13.83;12.37;;;;;;;;;;5076589;28;20445;-77
2023/07/02 13:21:56;;;;;;;16.93;13.83;;;;;;;;;;5077117;28;20437;-76
2023/07/02 13:24:24;;;;;;;14.87;13.33;;;;;;;;;;5076126;28;20475;-75
2023/07/02 13:26:51;;;;;;;16.23;11.70;;;;;;;;;;5074986;28;20526;-76
2023/07/02 13:29:19;;;;;;;15.03;13.53;;;;;;;;;;5073533;28;20535;-77
2023/07/02 13:31:46;;;;;;;14.67;13.17;;;;;;;;;;5074225;28;20453;-77
2023/07/02 13:34:16;;;;;;;13.30;11.90;;;;;;;;;;5073636;28;20530;-77
2023/07/02 13:36:46;;;;;;;15.33;13.83;;;;;;;;;;5074574;28;20528;-76
2023/07/02 13:39:13;;;;;;;14.30;12.67;;;;;;;;;;5075624;28;20433;-77
2023/07/02 13:41:41;;;;;;;16.10;13.50;;;;;;;;;;5086265;28;20471;-77
2023/07/02 13:44:08;;;;;;;16.40;14.60;;;;;;;;;;5084936;28;20456;-77
2023/07/02 13:46:36;;;;;;;15.93;14.30;;;;;;;;;;5080651;28;20539;-77
2023/07/02 13:49:04;;;;;;;14.83;13.20;;;;;;;;;;5084601;28;20722;-77
2023/07/02 13:51:31;;;;;;;15.23;13.73;;;;;;;;;;5083432;28;20504;-76
2023/07/02 13:54:02;;;;;;;14.73;12.77;;;;;;;;;;5081863;28;20477;-76
2023/07/02 13:56:30;;;;;;;15.33;13.73;;;;;;;;;;5084593;28;20449;-77
2023/07/02 13:59:04;;;;;;;15.00;13.50;;;;;;;;;;5081955;28;20456;-78
2023/07/02 14:01:32;;;;;;;14.00;12.60;;;;;;;;;;5083723;28;20455;-76
2023/07/02 14:04:00;;;;;;;14.43;12.97;;;;;;;;;;5085425;28;20978;-77
2023/07/02 14:06:27;;;;;;;14.87;13.47;;;;;;;;;;5080921;28;21085;-75
2023/07/02 14:08:55;;;;;;;13.80;12.33;;;;;;;;;;5079571;28;20455;-75
2023/07/02 14:11:24;;;;;;;13.97;12.27;;;;;;;;;;5079039;28;20453;-76
2023/07/02 14:13:51;;;;;;;15.60;12.93;;;;;;;;;;5080598;28;20540;-77
2023/07/02 14:16:20;;;;;;;14.80;12.90;;;;;;;;;;5079831;28;20453;-77
2023/07/02 14:18:47;;;;;;;14.93;13.50;;;;;;;;;;5080057;28;20436;-76
2023/07/02 14:21:15;;;;;;;14.93;13.43;;;;;;;;;;5078666;28;20544;-76
2023/07/02 14:23:43;;;;;;;15.37;13.73;;;;;;;;;;5079177;28;20892;-76
2023/07/02 14:26:10;;;;;;;15.53;13.90;;;;;;;;;;5078544;28;20480;-80
2023/07/02 14:28:37;;;;;;;16.57;14.10;;;;;;;;;;5079625;28;20445;-76
2023/07/02 14:31:05;;;;;;;15.73;14.13;;;;;;;;;;5078320;28;20445;-75
2023/07/02 14:33:36;;;;;;;15.10;13.50;;;;;;;;;;5084263;28;20688;-76
2023/07/02 14:36:04;;;;;;;17.23;14.37;;;;;;;;;;5086878;28;20437;-75
2023/07/02 14:38:33;;;;;;;14.27;12.80;;;;;;;;;;5090356;28;20449;-77